^^
Station Historical Data
 
Daily Summary for March 28, 2020 Units:  Metric    English   Both
Next Day »
Daily Weekly Monthly Yearly Custom
  Current: High: Low: Average:
Temperature: 7.9 °C 9.6 °C 6.2 °C 7.8 °C
Dew Point: 3.4 °C 6.4 °C 3.2 °C 4.9 °C
Humidity: 73% 89% 69% 82%
Wind Speed: 16.1km/h 38.9km/h 1.9km/h 16.6km/h
Wind Gust: 7.6km/h 23.2km/h - -
WindNNW - - SSW
Pressure: 1036.1 hPa 1036.1 hPa 1032.1 hPa -
Precipitation: 0.0 mm      
Historical Graphs
 
 
Tabular Data for March 28, 2020
Time Temperature Dew Point Pressure Wind Wind Speed Wind Gust Humidity Rainfall Rate (Hourly) solar Conditions
00:00 6.9 °C 5.1 °C 1032.1 hPa NNW 7.4 km/h 3.4 km/h 88% 0.0 mm 0.00 W/m2 CLR
00:05 6.9 °C 5.1 °C 1032.1 hPa NNE 7.4 km/h 3.1 km/h 88% 0.0 mm 0.00 W/m2 CLR
00:10 6.8 °C 5.0 °C 1032.1 hPa NNW 7.4 km/h 5.0 km/h 88% 0.0 mm 0.00 W/m2 CLR
00:15 6.8 °C 5.0 °C 1032.1 hPa NNE 18.5 km/h 8.7 km/h 88% 0.0 mm 0.00 W/m2 CLR
00:20 6.7 °C 4.9 °C 1032.2 hPa North 7.4 km/h 3.7 km/h 88% 0.0 mm 0.00 W/m2 CLR
00:25 6.7 °C 4.9 °C 1032.2 hPa NNW 11.1 km/h 5.1 km/h 88% 0.0 mm 0.00 W/m2 CLR
00:30 6.7 °C 4.8 °C 1032.2 hPa NW 11.1 km/h 3.2 km/h 88% 0.0 mm 0.00 W/m2 CLR
00:35 6.7 °C 5.0 °C 1032.2 hPa NNW 11.1 km/h 4.5 km/h 89% 0.0 mm 0.00 W/m2 CLR
00:40 6.7 °C 5.0 °C 1032.4 hPa WNW 13.0 km/h 3.5 km/h 89% 0.0 mm 0.00 W/m2 CLR
00:45 6.7 °C 5.0 °C 1032.3 hPa ENE 11.3 km/h 3.5 km/h 89% 0.0 mm 0.00 W/m2 CLR
00:50 6.6 °C 4.9 °C 1032.3 hPa North 11.1 km/h 6.1 km/h 89% 0.0 mm 0.00 W/m2 CLR
00:55 6.6 °C 4.9 °C 1032.3 hPa NNW 18.5 km/h 5.3 km/h 89% 0.0 mm 0.00 W/m2 CLR
01:00 6.5 °C 4.8 °C 1032.3 hPa NNW 11.1 km/h 2.4 km/h 89% 0.0 mm 0.00 W/m2 CLR
01:05 6.4 °C 4.8 °C 1032.4 hPa North 16.1 km/h 3.7 km/h 89% 0.0 mm 0.00 W/m2 CLR
01:10 6.3 °C 4.7 °C 1032.4 hPa North 11.1 km/h 5.1 km/h 89% 0.0 mm 0.00 W/m2 CLR
01:15 6.3 °C 4.7 °C 1032.4 hPa East 14.8 km/h 6.8 km/h 89% 0.0 mm 0.00 W/m2 CLR
01:20 6.3 °C 4.6 °C 1032.4 hPa East 16.7 km/h 4.8 km/h 89% 0.0 mm 0.00 W/m2 CLR
01:25 6.3 °C 4.6 °C 1032.4 hPa NNW 7.4 km/h 3.7 km/h 89% 0.0 mm 0.00 W/m2 CLR
01:30 6.2 °C 4.4 °C 1032.5 hPa North 11.1 km/h 1.9 km/h 88% 0.0 mm 0.00 W/m2 CLR
01:35 6.2 °C 4.3 °C 1032.5 hPa East 14.8 km/h 7.4 km/h 88% 0.0 mm 0.00 W/m2 CLR
01:40 6.2 °C 4.4 °C 1032.5 hPa South 13.0 km/h 6.0 km/h 88% 0.0 mm 0.00 W/m2 CLR
01:45 6.3 °C 4.6 °C 1032.6 hPa NNW 9.7 km/h 5.3 km/h 89% 0.0 mm 0.00 W/m2 CLR
01:50 6.3 °C 4.6 °C 1032.6 hPa East 7.4 km/h 3.9 km/h 89% 0.0 mm 5.00 W/m2 OVC
01:55 6.3 °C 4.7 °C 1032.7 hPa North 11.1 km/h 4.5 km/h 89% 0.0 mm 9.00 W/m2 OVC
02:00 6.4 °C 4.8 °C 1032.7 hPa NNW 9.7 km/h 3.2 km/h 89% 0.0 mm 12.00 W/m2 CLR
02:05 6.4 °C 4.7 °C 1032.8 hPa NNW 19.3 km/h 2.9 km/h 89% 0.0 mm 14.00 W/m2 CLR
02:10 6.4 °C 4.7 °C 1032.8 hPa East 9.3 km/h 5.3 km/h 89% 0.0 mm 14.00 W/m2 CLR
02:15 6.4 °C 4.7 °C 1032.9 hPa East 13.0 km/h 5.6 km/h 89% 0.0 mm 14.00 W/m2 OVC
02:20 6.4 °C 4.7 °C 1032.9 hPa North 11.1 km/h 2.4 km/h 89% 0.0 mm 14.00 W/m2 CLR
02:25 6.4 °C 4.8 °C 1033.0 hPa NNW 5.6 km/h 1.1 km/h 89% 0.0 mm 16.00 W/m2 CLR
02:30 6.5 °C 4.8 °C 1033.0 hPa ESE 7.4 km/h 2.4 km/h 89% 0.0 mm 33.00 W/m2 OVC
02:35 6.5 °C 4.8 °C 1033.0 hPa NNE 18.5 km/h 4.3 km/h 89% 0.0 mm 47.00 W/m2 CLR
02:40 6.6 °C 4.9 °C 1033.0 hPa NNE 13.0 km/h 4.3 km/h 89% 0.0 mm 35.00 W/m2 CLR
02:45 6.5 °C 4.8 °C 1033.0 hPa North 16.7 km/h 5.1 km/h 89% 0.0 mm 35.00 W/m2 OVC
02:50 6.5 °C 4.8 °C 1033.1 hPa ENE 1.9 km/h 0.3 km/h 89% 0.0 mm 44.00 W/m2 OVC
02:55 6.6 °C 4.9 °C 1033.1 hPa ENE 13.0 km/h 6.1 km/h 89% 0.0 mm 62.00 W/m2 CLR
03:00 6.6 °C 4.9 °C 1033.1 hPa NNE 13.0 km/h 4.3 km/h 89% 0.0 mm 95.00 W/m2 BKN
03:05 6.7 °C 5.0 °C 1033.2 hPa North 18.5 km/h 7.2 km/h 89% 0.0 mm 128.00 W/m2 SCT
03:10 6.8 °C 5.2 °C 1033.3 hPa NE 16.1 km/h 5.3 km/h 89% 0.0 mm 127.00 W/m2 CLR
03:15 6.9 °C 5.3 °C 1033.3 hPa NNW 16.7 km/h 6.8 km/h 89% 0.0 mm 146.00 W/m2 CLR
03:20 7.1 °C 5.3 °C 1033.2 hPa NNW 25.9 km/h 8.0 km/h 88% 0.0 mm 125.00 W/m2 CLR
03:25 7.2 °C 5.4 °C 1033.2 hPa NW 9.3 km/h 1.4 km/h 88% 0.0 mm 155.00 W/m2 CLR
03:30 7.3 °C 5.5 °C 1033.2 hPa ESE 14.5 km/h 6.9 km/h 88% 0.0 mm 109.00 W/m2 CLR
03:35 7.4 °C 5.6 °C 1033.3 hPa NW 14.8 km/h 2.7 km/h 88% 0.0 mm 156.00 W/m2 CLR
03:40 7.5 °C 5.7 °C 1033.4 hPa ENE 11.1 km/h 4.5 km/h 88% 0.0 mm 158.00 W/m2 CLR
03:45 7.6 °C 5.7 °C 1033.4 hPa NE 16.7 km/h 7.2 km/h 88% 0.0 mm 107.00 W/m2 CLR
03:50 7.6 °C 5.7 °C 1033.5 hPa ENE 11.1 km/h 4.0 km/h 88% 0.0 mm 128.00 W/m2 CLR
03:55 7.6 °C 5.7 °C 1033.7 hPa ESE 13.0 km/h 3.2 km/h 88% 0.0 mm 77.00 W/m2 CLR
04:00 7.6 °C 5.6 °C 1033.7 hPa North 11.3 km/h 1.8 km/h 87% 0.0 mm 69.00 W/m2 CLR
04:05 7.6 °C 5.6 °C 1033.8 hPa NNE 22.2 km/h 9.2 km/h 87% 0.0 mm 83.00 W/m2 FEW
04:10 7.5 °C 5.5 °C 1033.8 hPa NNW 13.0 km/h 4.3 km/h 87% 0.0 mm 153.00 W/m2 CLR
04:15 7.6 °C 5.6 °C 1033.9 hPa North 14.8 km/h 6.0 km/h 87% 0.0 mm 105.00 W/m2 CLR
04:20 7.6 °C 5.6 °C 1034.1 hPa North 16.7 km/h 5.1 km/h 87% 0.0 mm 139.00 W/m2 CLR
04:25 7.6 °C 5.6 °C 1034.1 hPa SE 13.0 km/h 6.6 km/h 87% 0.0 mm 160.00 W/m2 CLR
04:30 7.7 °C 5.7 °C 1034.1 hPa North 14.8 km/h 5.5 km/h 87% 0.0 mm 105.00 W/m2 CLR
04:35 7.7 °C 5.7 °C 1034.1 hPa NNW 14.8 km/h 4.7 km/h 87% 0.0 mm 98.00 W/m2 CLR
04:40 7.7 °C 5.5 °C 1034.1 hPa NNW 16.7 km/h 6.3 km/h 86% 0.0 mm 109.00 W/m2 SCT
04:45 7.7 °C 5.7 °C 1034.2 hPa North 14.8 km/h 7.6 km/h 87% 0.0 mm 156.00 W/m2 SCT
04:50 7.7 °C 5.5 °C 1034.2 hPa SSW 9.3 km/h 3.4 km/h 86% 0.0 mm 199.00 W/m2 FEW
04:55 7.8 °C 5.7 °C 1034.3 hPa ENE 16.7 km/h 6.9 km/h 87% 0.0 mm 218.00 W/m2 CLR
05:00 7.9 °C 5.8 °C 1034.3 hPa North 5.6 km/h 1.0 km/h 87% 0.0 mm 158.00 W/m2 CLR
05:05 8.0 °C 5.8 °C 1034.3 hPa NNE 16.7 km/h 7.2 km/h 86% 0.0 mm 121.00 W/m2 FEW
05:10 7.8 °C 5.6 °C 1034.4 hPa NW 13.0 km/h 6.0 km/h 86% 0.0 mm 151.00 W/m2 SCT
05:15 7.8 °C 5.6 °C 1034.5 hPa NE 5.6 km/h 1.1 km/h 86% 0.0 mm 148.00 W/m2 SCT
05:20 7.8 °C 5.6 °C 1034.5 hPa NE 11.1 km/h 4.5 km/h 86% 0.0 mm 183.00 W/m2 SCT
05:25 7.8 °C 5.6 °C 1034.4 hPa NNW 19.3 km/h 2.1 km/h 86% 0.0 mm 207.00 W/m2 SCT
05:30 7.8 °C 5.8 °C 1034.5 hPa East 11.1 km/h 5.3 km/h 87% 0.0 mm 183.00 W/m2 SCT
05:35 7.9 °C 5.8 °C 1034.5 hPa SSW 13.0 km/h 6.1 km/h 87% 0.0 mm 199.00 W/m2 SCT
05:40 7.9 °C 5.9 °C 1034.6 hPa NE 18.5 km/h 5.8 km/h 87% 0.0 mm 116.00 W/m2 SCT
05:45 7.9 °C 5.8 °C 1034.6 hPa ENE 20.9 km/h 7.2 km/h 87% 0.0 mm 209.00 W/m2 SCT
05:50 7.9 °C 5.9 °C 1034.6 hPa ENE 14.8 km/h 5.1 km/h 87% 0.0 mm 295.00 W/m2 SCT
05:55 8.1 °C 6.0 °C 1034.6 hPa NW 9.3 km/h 1.9 km/h 87% 0.0 mm 278.00 W/m2 FEW
06:00 8.2 °C 6.2 °C 1034.7 hPa North 14.8 km/h 6.9 km/h 87% 0.0 mm 315.00 W/m2 CLR
06:05 8.4 °C 6.4 °C 1034.7 hPa NW 20.4 km/h 8.7 km/h 87% 0.0 mm 225.00 W/m2 CLR
06:10 8.3 °C 5.9 °C 1034.7 hPa WSW 18.5 km/h 8.8 km/h 85% 0.0 mm 262.00 W/m2 FEW
06:15 8.3 °C 5.7 °C 1034.7 hPa NE 38.9 km/h 10.6 km/h 84% 0.0 mm 267.00 W/m2 SCT
06:20 8.3 °C 5.4 °C 1034.8 hPa NE 18.5 km/h 9.2 km/h 82% 0.0 mm 348.00 W/m2 FEW
06:25 8.4 °C 5.3 °C 1034.8 hPa SE 11.1 km/h 3.2 km/h 81% 0.0 mm 404.00 W/m2 CLR
06:30 8.6 °C 5.1 °C 1034.9 hPa NE 18.5 km/h 7.2 km/h 79% 0.0 mm 360.00 W/m2 CLR
06:35 8.7 °C 5.2 °C 1035.0 hPa NNW 18.5 km/h 7.7 km/h 79% 0.0 mm 341.00 W/m2 CLR
06:40 8.8 °C 5.2 °C 1034.9 hPa NE 22.2 km/h 9.5 km/h 78% 0.0 mm 392.00 W/m2 CLR
06:45 8.9 °C 5.1 °C 1034.9 hPa East 24.1 km/h 11.1 km/h 77% 0.0 mm 311.00 W/m2 CLR
06:50 8.8 °C 5.0 °C 1034.9 hPa NNW 14.8 km/h 8.4 km/h 77% 0.0 mm 272.00 W/m2 FEW
06:55 8.8 °C 5.2 °C 1034.9 hPa NNE 22.2 km/h 10.1 km/h 78% 0.0 mm 292.00 W/m2 SCT
07:00 8.8 °C 5.2 °C 1035.1 hPa North 14.8 km/h 7.2 km/h 78% 0.0 mm 190.00 W/m2 SCT
07:05 8.7 °C 5.1 °C 1035.3 hPa NNE 18.5 km/h 9.5 km/h 78% 0.0 mm 181.00 W/m2 SCT
07:10 8.6 °C 4.9 °C 1035.3 hPa ENE 7.4 km/h 1.6 km/h 78% 0.0 mm 243.00 W/m2 BKN
07:15 8.6 °C 5.1 °C 1035.3 hPa North 16.7 km/h 7.6 km/h 79% 0.0 mm 366.00 W/m2 SCT
07:20 8.7 °C 5.2 °C 1035.3 hPa NE 14.5 km/h 4.7 km/h 79% 0.0 mm 364.00 W/m2 SCT
07:25 8.7 °C 5.3 °C 1035.1 hPa NNE 18.5 km/h 10.8 km/h 79% 0.0 mm 313.00 W/m2 SCT
07:30 8.8 °C 5.2 °C 1035.2 hPa NNW 24.1 km/h 14.6 km/h 78% 0.0 mm 385.00 W/m2 FEW
07:35 8.9 °C 5.1 °C 1035.2 hPa NE 22.2 km/h 9.7 km/h 77% 0.0 mm 385.00 W/m2 FEW
07:40 8.9 °C 5.3 °C 1035.2 hPa NNW 22.2 km/h 11.7 km/h 78% 0.0 mm 320.00 W/m2 FEW
07:45 8.9 °C 5.1 °C 1035.3 hPa NNE 24.1 km/h 7.7 km/h 77% 0.0 mm 557.00 W/m2 SCT
07:50 9.1 °C 5.5 °C 1035.3 hPa North 22.2 km/h 11.7 km/h 78% 0.0 mm 568.00 W/m2 CLR
07:55 9.2 °C 5.3 °C 1035.3 hPa North 25.9 km/h 14.5 km/h 77% 0.0 mm 227.00 W/m2 FEW
08:00 9.2 °C 5.2 °C 1035.3 hPa NNW 20.9 km/h 8.5 km/h 76% 0.0 mm 647.00 W/m2 SCT
08:05 9.4 °C 5.2 °C 1035.5 hPa North 14.8 km/h 5.6 km/h 75% 0.0 mm 788.00 W/m2 CLR
08:10 9.6 °C 4.8 °C 1035.4 hPa SSE 24.1 km/h 13.7 km/h 72% 0.0 mm 911.00 W/m2 CLR
08:15 9.6 °C 4.6 °C 1035.5 hPa NNE 25.9 km/h 11.7 km/h 71% 0.0 mm 276.00 W/m2 CLR
08:20 9.3 °C 4.1 °C 1035.4 hPa NW 27.8 km/h 11.3 km/h 70% 0.0 mm 754.00 W/m2 SCT
08:25 9.4 °C 4.2 °C 1035.5 hPa ENE 16.7 km/h 10.8 km/h 70% 0.0 mm 687.00 W/m2 FEW
08:30 9.4 °C 4.2 °C 1035.6 hPa NNW 24.1 km/h 12.2 km/h 70% 0.0 mm 487.00 W/m2 CLR
08:35 9.4 °C 4.2 °C 1035.6 hPa NNW 29.0 km/h 13.0 km/h 70% 0.0 mm 308.00 W/m2 CLR
08:40 9.2 °C 3.8 °C 1035.6 hPa North 18.5 km/h 10.5 km/h 69% 0.0 mm 156.00 W/m2 FEW
08:45 9.1 °C 4.1 °C 1035.7 hPa North 20.4 km/h 12.6 km/h 71% 0.0 mm 359.00 W/m2 BKN
08:50 9.1 °C 4.1 °C 1035.8 hPa NNW 24.1 km/h 10.0 km/h 71% 0.0 mm 403.00 W/m2 SCT
08:55 8.9 °C 3.9 °C 1035.7 hPa NNW 29.6 km/h 16.1 km/h 71% 0.0 mm 243.00 W/m2 SCT
09:00 8.8 °C 4.1 °C 1035.7 hPa NNW 29.6 km/h 16.1 km/h 72% 0.0 mm 283.00 W/m2 SCT
09:05 8.9 °C 4.2 °C 1035.7 hPa North 25.9 km/h 14.3 km/h 72% 0.0 mm 559.00 W/m2 SCT
09:10 9.2 °C 4.2 °C 1035.6 hPa North 18.5 km/h 8.2 km/h 71% 0.0 mm 443.00 W/m2 FEW
09:15 9.3 °C 4.3 °C 1035.7 hPa NNW 22.2 km/h 11.9 km/h 71% 0.0 mm 610.00 W/m2 CLR
09:20 9.3 °C 4.3 °C 1035.7 hPa NNW 18.5 km/h 10.6 km/h 71% 0.0 mm 689.00 W/m2 FEW
09:25 9.1 °C 4.1 °C 1035.8 hPa North 18.5 km/h 6.4 km/h 71% 0.0 mm 181.00 W/m2 FEW
09:30 8.9 °C 3.9 °C 1035.8 hPa NNE 24.1 km/h 12.6 km/h 71% 0.0 mm 183.00 W/m2 SCT
09:35 8.7 °C 3.6 °C 1035.8 hPa NNW 35.2 km/h 23.2 km/h 70% 0.0 mm 315.00 W/m2 BKN
09:40 8.7 °C 3.5 °C 1035.8 hPa NW 16.7 km/h 8.4 km/h 70% 0.0 mm 545.00 W/m2 SCT
09:45 8.8 °C 3.8 °C 1036.0 hPa North 32.2 km/h 15.1 km/h 71% 0.0 mm 557.00 W/m2 CLR
09:50 8.8 °C 4.3 °C 1035.9 hPa WNW 16.7 km/h 6.9 km/h 73% 0.0 mm 199.00 W/m2 CLR
09:55 8.7 °C 4.1 °C 1036.0 hPa NW 14.8 km/h 9.0 km/h 73% 0.0 mm 360.00 W/m2 SCT
10:00 8.6 °C 4.1 °C 1035.9 hPa NNW 18.5 km/h 7.4 km/h 73% 0.0 mm 329.00 W/m2 SCT
10:05 8.4 °C 3.9 °C 1036.1 hPa NNW 11.1 km/h 5.8 km/h 73% 0.0 mm 302.00 W/m2 SCT
10:10 8.2 °C 3.4 °C 1036.0 hPa NNW 24.1 km/h 13.8 km/h 72% 0.0 mm 332.00 W/m2 SCT
10:15 8.1 °C 3.3 °C 1036.0 hPa ESE 22.2 km/h 8.4 km/h 72% 0.0 mm 287.00 W/m2 SCT
10:20 8.0 °C 3.3 °C 1036.0 hPa NW 29.6 km/h 12.7 km/h 72% 0.0 mm 339.00 W/m2 SCT
10:25 7.9 °C 3.2 °C 1036.1 hPa North 27.8 km/h 11.9 km/h 72% 0.0 mm 308.00 W/m2 SCT
10:30 7.9 °C 3.4 °C 1036.1 hPa NNW 16.1 km/h 7.6 km/h 73% 0.0 mm 429.00 W/m2 SCT
Billingham Weather Station